createdAt,value
2023-03-25T00:00:27.594Z,10.45
2023-03-25T00:01:27.714Z,10.43
2023-03-25T00:02:27.730Z,10.42
2023-03-25T00:03:27.567Z,10.43
2023-03-25T00:04:27.574Z,10.39
2023-03-25T00:05:27.526Z,10.34
2023-03-25T00:06:27.508Z,10.33
2023-03-25T00:07:27.514Z,10.31
2023-03-25T00:08:27.477Z,10.27
2023-03-25T00:09:27.459Z,10.27
2023-03-25T00:10:27.485Z,10.30
2023-03-25T00:11:27.436Z,10.28
2023-03-25T00:12:27.416Z,10.30
2023-03-25T00:13:27.502Z,10.31
2023-03-25T00:14:27.445Z,10.31
2023-03-25T00:15:27.398Z,10.33
2023-03-25T00:16:27.484Z,10.31
2023-03-25T00:17:27.374Z,10.27
2023-03-25T00:18:27.338Z,10.25
2023-03-25T00:19:27.463Z,10.25
2023-03-25T00:20:27.312Z,10.25
2023-03-25T00:21:27.318Z,10.24
2023-03-25T00:22:27.304Z,10.23
2023-03-25T00:23:27.281Z,10.24
2023-03-25T00:24:27.272Z,10.23
2023-03-25T00:25:27.254Z,10.24
2023-03-25T00:26:27.324Z,10.24
2023-03-25T00:27:27.217Z,10.24
2023-03-25T00:28:27.228Z,10.24
2023-03-25T00:29:27.199Z,10.23
2023-03-25T00:30:27.193Z,10.23
2023-03-25T00:31:27.298Z,10.18
2023-03-25T00:32:27.161Z,10.13
2023-03-25T00:33:27.173Z,10.13
2023-03-25T00:34:27.116Z,10.12
2023-03-25T00:35:27.163Z,10.12
2023-03-25T00:36:27.149Z,10.13
2023-03-25T00:37:27.085Z,10.10
2023-03-25T00:38:27.069Z,10.09
2023-03-25T00:39:27.047Z,10.09
2023-03-25T00:40:27.041Z,10.07
2023-03-25T00:41:27.037Z,10.09
2023-03-25T00:42:27.006Z,10.07
2023-03-25T00:43:27.124Z,10.05
2023-03-25T00:44:26.977Z,10.02
2023-03-25T00:45:26.976Z,10.00
2023-03-25T00:46:27.097Z,9.99
2023-03-25T00:47:27.033Z,9.97
2023-03-25T00:48:26.966Z,9.94
2023-03-25T00:49:26.925Z,9.91
2023-03-25T00:50:26.926Z,9.87
2023-03-25T00:51:26.910Z,9.88
2023-03-25T00:52:26.893Z,9.88
2023-03-25T00:53:26.865Z,9.88
2023-03-25T00:54:26.844Z,9.88
2023-03-25T00:55:26.836Z,9.87
2023-03-25T00:56:26.892Z,9.82
2023-03-25T00:57:26.808Z,9.81
2023-03-25T00:58:26.791Z,9.81
2023-03-25T00:59:26.817Z,9.84
2023-03-25T01:00:26.803Z,9.84
2023-03-25T01:01:26.812Z,9.81
2023-03-25T01:02:26.849Z,9.82
2023-03-25T01:03:26.837Z,9.82
2023-03-25T01:04:26.704Z,9.84
2023-03-25T01:05:26.734Z,9.81
2023-03-25T01:06:26.714Z,9.80
2023-03-25T01:07:26.672Z,9.81
2023-03-25T01:08:26.643Z,9.77
2023-03-25T01:09:26.639Z,9.76
2023-03-25T01:10:26.620Z,9.74
2023-03-25T01:11:26.656Z,9.74
2023-03-25T01:12:26.591Z,9.76
2023-03-25T01:13:26.602Z,9.77
2023-03-25T01:14:26.562Z,9.76
2023-03-25T01:15:26.567Z,9.74
2023-03-25T01:16:26.577Z,9.74
2023-03-25T01:17:26.560Z,9.76
2023-03-25T01:18:26.510Z,9.76
2023-03-25T01:19:26.520Z,9.80
2023-03-25T01:20:26.491Z,9.81
2023-03-25T01:21:26.497Z,9.84
2023-03-25T01:22:26.453Z,9.85
2023-03-25T01:23:26.446Z,9.87
2023-03-25T01:24:26.422Z,9.88
2023-03-25T01:25:26.455Z,9.90
2023-03-25T01:26:26.420Z,9.91
2023-03-25T01:27:26.394Z,9.90
2023-03-25T01:28:26.384Z,9.88
2023-03-25T01:29:26.371Z,9.87
2023-03-25T01:30:26.346Z,9.85
2023-03-25T01:31:26.426Z,9.88
2023-03-25T01:32:26.347Z,9.87
2023-03-25T01:33:26.315Z,9.85
2023-03-25T01:34:26.317Z,9.87
2023-03-25T01:35:26.280Z,9.88
2023-03-25T01:36:26.283Z,9.87
2023-03-25T01:37:26.292Z,9.91
2023-03-25T01:38:26.247Z,9.90
2023-03-25T01:39:26.223Z,9.91
2023-03-25T01:40:26.217Z,9.90
2023-03-25T01:41:29.223Z,9.90
2023-03-25T01:42:27.182Z,9.88
2023-03-25T01:43:26.177Z,9.88
2023-03-25T01:44:26.168Z,9.87
2023-03-25T01:45:26.148Z,9.87
2023-03-25T01:46:26.260Z,9.88
2023-03-25T01:47:26.172Z,9.88
2023-03-25T01:48:26.132Z,9.90
2023-03-25T01:49:26.118Z,9.95
2023-03-25T01:50:26.122Z,9.95
2023-03-25T01:51:26.152Z,9.97
2023-03-25T01:52:26.072Z,9.97
2023-03-25T01:53:26.038Z,9.99
2023-03-25T01:54:26.036Z,10.02
2023-03-25T01:55:26.020Z,10.03
2023-03-25T01:56:26.018Z,10.05
2023-03-25T01:57:26.087Z,10.05
2023-03-25T01:58:26.030Z,10.09
2023-03-25T01:59:25.989Z,10.09
2023-03-25T02:00:25.956Z,10.10
2023-03-25T02:01:25.941Z,10.09
2023-03-25T02:02:25.956Z,10.09
2023-03-25T02:03:25.969Z,10.09
2023-03-25T02:04:25.898Z,10.09
2023-03-25T02:05:25.872Z,10.09
2023-03-25T02:06:25.882Z,10.07
2023-03-25T02:07:25.877Z,10.06
2023-03-25T02:08:25.854Z,10.07
2023-03-25T02:09:25.833Z,10.05
2023-03-25T02:10:25.820Z,10.02
2023-03-25T02:11:25.801Z,10.02
2023-03-25T02:12:25.806Z,9.95
2023-03-25T02:13:25.776Z,9.90
2023-03-25T02:14:25.766Z,9.90
2023-03-25T02:15:25.745Z,9.88
2023-03-25T02:16:25.788Z,9.85
2023-03-25T02:17:25.762Z,9.82
2023-03-25T02:18:25.711Z,9.80
2023-03-25T02:19:25.692Z,9.81
2023-03-25T02:20:25.694Z,9.80
2023-03-25T02:21:25.664Z,9.81
2023-03-25T02:22:25.726Z,9.80
2023-03-25T02:23:25.636Z,9.76
2023-03-25T02:24:25.634Z,9.76
2023-03-25T02:25:25.619Z,9.70
2023-03-25T02:26:25.621Z,9.66
2023-03-25T02:27:25.602Z,9.62
2023-03-25T02:28:25.584Z,9.62
2023-03-25T02:29:25.559Z,9.62
2023-03-25T02:30:25.554Z,9.54
2023-03-25T02:31:25.677Z,9.49
2023-03-25T02:32:25.543Z,9.49
2023-03-25T02:33:25.479Z,9.51
2023-03-25T02:34:25.485Z,9.54
2023-03-25T02:35:25.502Z,9.54
2023-03-25T02:36:25.467Z,9.54
2023-03-25T02:37:25.476Z,9.56
2023-03-25T02:38:25.441Z,9.58
2023-03-25T02:39:25.438Z,9.58
2023-03-25T02:40:25.412Z,9.59
2023-03-25T02:41:25.398Z,9.58
2023-03-25T02:42:25.379Z,9.62
2023-03-25T02:43:25.394Z,9.64
2023-03-25T02:44:25.368Z,9.66
2023-03-25T02:45:25.345Z,9.64
2023-03-25T02:46:25.374Z,9.69
2023-03-25T02:47:25.373Z,9.66
2023-03-25T02:48:25.390Z,9.67
2023-03-25T02:49:25.288Z,9.72
2023-03-25T02:50:25.273Z,9.72
2023-03-25T02:51:25.255Z,9.70
2023-03-25T02:52:25.258Z,9.70
2023-03-25T02:53:25.243Z,9.70
2023-03-25T02:54:25.200Z,9.72
2023-03-25T02:55:25.195Z,9.70
2023-03-25T02:56:25.189Z,9.69
2023-03-25T02:57:25.160Z,9.69
2023-03-25T02:58:25.193Z,9.70
2023-03-25T02:59:25.140Z,9.66
2023-03-25T03:00:25.135Z,9.64
2023-03-25T03:01:25.150Z,9.58
2023-03-25T03:02:25.188Z,9.55
2023-03-25T03:03:25.131Z,9.51
2023-03-25T03:04:25.082Z,9.47
2023-03-25T03:05:25.057Z,9.44
2023-03-25T03:06:25.047Z,9.44
2023-03-25T03:07:25.031Z,9.40
2023-03-25T03:08:25.054Z,9.37
2023-03-25T03:09:25.002Z,9.33
2023-03-25T03:10:25.001Z,9.30
2023-03-25T03:11:24.974Z,9.26
2023-03-25T03:12:24.969Z,9.24
2023-03-25T03:13:24.951Z,9.22
2023-03-25T03:14:24.958Z,9.22
2023-03-25T03:15:24.939Z,9.27
2023-03-25T03:16:25.028Z,9.30
2023-03-25T03:17:24.957Z,9.30
2023-03-25T03:18:24.955Z,9.30
2023-03-25T03:19:24.892Z,9.31
2023-03-25T03:20:24.863Z,9.29
2023-03-25T03:21:24.844Z,9.27
2023-03-25T03:22:24.843Z,9.24
2023-03-25T03:23:24.814Z,9.22
2023-03-25T03:24:24.826Z,9.22
2023-03-25T03:25:24.782Z,9.21
2023-03-25T03:26:24.781Z,9.21
2023-03-25T03:27:24.772Z,9.22
2023-03-25T03:28:24.743Z,9.24
2023-03-25T03:29:24.753Z,9.29
2023-03-25T03:30:24.738Z,9.30
2023-03-25T03:32:00.190Z,9.33
2023-03-25T03:32:25.758Z,9.33
2023-03-25T03:33:24.675Z,9.34
2023-03-25T03:34:24.685Z,9.37
2023-03-25T03:35:24.743Z,9.40
2023-03-25T03:36:24.649Z,9.42
2023-03-25T03:37:24.636Z,9.47
2023-03-25T03:38:24.622Z,9.49
2023-03-25T03:39:24.626Z,9.51
2023-03-25T03:40:24.598Z,9.52
2023-03-25T03:41:24.574Z,9.56
2023-03-25T03:42:24.564Z,9.63
2023-03-25T03:43:24.543Z,9.64
2023-03-25T03:44:24.548Z,9.67
2023-03-25T03:45:24.523Z,9.67
2023-03-25T03:46:24.577Z,9.69
2023-03-25T03:47:24.485Z,9.72
2023-03-25T03:48:24.479Z,9.70
2023-03-25T03:49:24.473Z,9.73
2023-03-25T03:50:24.448Z,9.74
2023-03-25T03:51:24.420Z,9.74
2023-03-25T03:52:24.431Z,9.73
2023-03-25T03:53:24.407Z,9.73
2023-03-25T03:54:24.414Z,9.76
2023-03-25T03:55:24.376Z,9.76
2023-03-25T03:56:24.379Z,9.74
2023-03-25T03:57:24.354Z,9.69
2023-03-25T03:58:24.339Z,9.64
2023-03-25T03:59:24.333Z,9.64
2023-03-25T04:00:24.300Z,9.64
2023-03-25T04:01:24.291Z,9.66
2023-03-25T04:02:24.433Z,9.69
2023-03-25T04:03:24.669Z,9.69
2023-03-25T04:04:24.263Z,9.70
2023-03-25T04:05:24.242Z,9.72
2023-03-25T04:06:24.229Z,9.72
2023-03-25T04:07:24.213Z,9.70
2023-03-25T04:08:24.205Z,9.72
2023-03-25T04:09:24.191Z,9.73
2023-03-25T04:10:24.170Z,9.73
2023-03-25T04:11:24.152Z,9.74
2023-03-25T04:12:24.137Z,9.69
2023-03-25T04:13:24.129Z,9.67
2023-03-25T04:14:24.133Z,9.69
2023-03-25T04:15:24.111Z,9.70
2023-03-25T04:16:24.127Z,9.69
2023-03-25T04:17:24.153Z,9.67
2023-03-25T04:18:24.060Z,9.64
2023-03-25T04:19:24.062Z,9.66
2023-03-25T04:20:24.200Z,9.66
2023-03-25T04:21:24.014Z,9.69
2023-03-25T04:22:24.006Z,9.72
2023-03-25T04:23:23.987Z,9.74
2023-03-25T04:24:23.995Z,9.73
2023-03-25T04:25:23.954Z,9.70
2023-03-25T04:26:23.962Z,9.70
2023-03-25T04:27:23.930Z,9.72
2023-03-25T04:28:23.944Z,9.70
2023-03-25T04:29:23.919Z,9.72
2023-03-25T04:30:23.902Z,9.73
2023-03-25T04:31:23.889Z,9.74
2023-03-25T04:32:23.901Z,9.76
2023-03-25T04:33:23.852Z,9.74
2023-03-25T04:34:23.853Z,9.70
2023-03-25T04:35:23.834Z,9.70
2023-03-25T04:36:23.816Z,9.67
2023-03-25T04:37:23.799Z,9.66
2023-03-25T04:38:23.832Z,9.66
2023-03-25T04:39:23.791Z,9.62
2023-03-25T04:40:23.757Z,9.62
2023-03-25T04:41:23.843Z,9.59
2023-03-25T04:42:23.719Z,9.62
2023-03-25T04:43:23.720Z,9.58
2023-03-25T04:44:23.710Z,9.58
2023-03-25T04:45:23.699Z,9.54
2023-03-25T04:46:23.760Z,9.52
2023-03-25T04:47:23.694Z,9.45
2023-03-25T04:48:23.663Z,9.36
2023-03-25T04:49:23.630Z,9.30
2023-03-25T04:50:23.632Z,9.21
2023-03-25T04:51:23.627Z,9.19
2023-03-25T04:52:23.591Z,9.21
2023-03-25T04:53:23.575Z,9.24
2023-03-25T04:54:23.602Z,9.24
2023-03-25T04:55:23.587Z,9.26
2023-03-25T04:56:23.600Z,9.24
2023-03-25T04:57:23.524Z,9.26
2023-03-25T04:58:23.523Z,9.24
2023-03-25T04:59:23.505Z,9.21
2023-03-25T05:00:23.505Z,9.18
2023-03-25T05:01:23.530Z,9.16
2023-03-25T05:02:23.498Z,9.18
2023-03-25T05:03:23.439Z,9.12
2023-03-25T05:04:23.473Z,9.12
2023-03-25T05:05:23.435Z,9.11
2023-03-25T05:06:24.731Z,9.12
2023-03-25T05:07:23.400Z,9.13
2023-03-25T05:08:23.373Z,9.13
2023-03-25T05:09:23.372Z,9.15
2023-03-25T05:10:23.368Z,9.15
2023-03-25T05:11:23.332Z,9.15
2023-03-25T05:12:23.321Z,9.18
2023-03-25T05:13:23.315Z,9.19
2023-03-25T05:14:23.295Z,9.24
2023-03-25T05:15:23.292Z,9.26
2023-03-25T05:16:23.291Z,9.29
2023-03-25T05:17:23.279Z,9.30
2023-03-25T05:18:23.246Z,9.31
2023-03-25T05:19:23.226Z,9.33
2023-03-25T05:20:23.223Z,9.33
2023-03-25T05:21:23.201Z,9.31
2023-03-25T05:22:23.177Z,9.34
2023-03-25T05:23:23.178Z,9.33
2023-03-25T05:24:23.151Z,9.33
2023-03-25T05:25:23.175Z,9.31
2023-03-25T05:26:23.133Z,9.31
2023-03-25T05:27:23.125Z,9.29
2023-03-25T05:28:23.103Z,9.27
2023-03-25T05:29:23.096Z,9.27
2023-03-25T05:30:23.118Z,9.26
2023-03-25T05:31:23.075Z,9.22
2023-03-25T05:32:23.055Z,9.24
2023-03-25T05:33:23.031Z,9.21
2023-03-25T05:34:23.021Z,9.21
2023-03-25T05:35:23.047Z,9.21
2023-03-25T05:36:23.001Z,9.22
2023-03-25T05:37:22.987Z,9.26
2023-03-25T05:38:22.990Z,9.26
2023-03-25T05:39:22.983Z,9.26
2023-03-25T05:40:22.983Z,9.26
2023-03-25T05:41:22.926Z,9.26
2023-03-25T05:42:23.069Z,9.27
2023-03-25T05:43:22.976Z,9.29
2023-03-25T05:44:22.886Z,9.29
2023-03-25T05:45:22.880Z,9.27
2023-03-25T05:46:22.889Z,9.29
2023-03-25T05:47:22.838Z,9.27
2023-03-25T05:48:22.836Z,9.27
2023-03-25T05:49:22.812Z,9.27
2023-03-25T05:50:22.810Z,9.29
2023-03-25T05:51:22.785Z,9.30
2023-03-25T05:52:22.761Z,9.31
2023-03-25T05:53:22.790Z,9.29
2023-03-25T05:54:22.719Z,9.30
2023-03-25T05:55:22.763Z,9.29
2023-03-25T05:56:22.712Z,9.30
2023-03-25T05:57:22.680Z,9.33
2023-03-25T05:58:22.694Z,9.34
2023-03-25T05:59:22.672Z,9.34
2023-03-25T06:00:23.786Z,9.39
2023-03-25T06:01:32.500Z,9.39
2023-03-25T06:02:23.686Z,9.40
2023-03-25T06:03:22.703Z,9.40
2023-03-25T06:04:22.634Z,9.42
2023-03-25T06:05:22.592Z,9.42
2023-03-25T06:06:22.591Z,9.44
2023-03-25T06:07:22.578Z,9.42
2023-03-25T06:08:22.549Z,9.40
2023-03-25T06:09:22.549Z,9.40
2023-03-25T06:10:22.519Z,9.39
2023-03-25T06:11:22.522Z,9.40
2023-03-25T06:12:22.506Z,9.42
2023-03-25T06:13:22.506Z,9.47
2023-03-25T06:14:22.477Z,9.44
2023-03-25T06:15:22.470Z,9.44
2023-03-25T06:16:22.562Z,9.40
2023-03-25T06:17:29.670Z,9.42
2023-03-25T06:18:22.425Z,9.44
2023-03-25T06:19:22.405Z,9.44
2023-03-25T06:20:22.380Z,9.44
2023-03-25T06:21:22.398Z,9.42
2023-03-25T06:22:22.476Z,9.40
2023-03-25T06:23:22.352Z,9.40
2023-03-25T06:24:22.329Z,9.44
2023-03-25T06:25:22.316Z,9.45
2023-03-25T06:26:22.317Z,9.48
2023-03-25T06:27:22.297Z,9.40
2023-03-25T06:28:22.282Z,9.37
2023-03-25T06:29:22.294Z,9.36
2023-03-25T06:30:22.266Z,9.37
2023-03-25T06:31:22.321Z,9.40
2023-03-25T06:32:22.353Z,9.42
2023-03-25T06:33:42.508Z,9.45
2023-03-25T06:34:23.756Z,9.48
2023-03-25T06:35:22.223Z,9.49
2023-03-25T06:36:22.233Z,9.54
2023-03-25T06:37:22.189Z,9.55
2023-03-25T06:38:22.139Z,9.56
2023-03-25T06:39:22.139Z,9.58
2023-03-25T06:40:22.120Z,9.62
2023-03-25T06:41:22.121Z,9.64
2023-03-25T06:42:22.119Z,9.67
2023-03-25T06:43:22.076Z,9.67
2023-03-25T06:44:24.361Z,9.69
2023-03-25T06:45:22.073Z,9.70
2023-03-25T06:46:22.155Z,9.70
2023-03-25T06:47:22.024Z,9.72
2023-03-25T06:48:22.005Z,9.73
2023-03-25T06:49:22.003Z,9.74
2023-03-25T06:50:21.977Z,9.74
2023-03-25T06:51:21.989Z,9.77
2023-03-25T06:52:22.062Z,9.80
2023-03-25T06:53:22.002Z,9.80
2023-03-25T06:54:21.925Z,9.77
2023-03-25T06:55:21.921Z,9.76
2023-03-25T06:56:21.917Z,9.74
2023-03-25T06:57:21.884Z,9.73
2023-03-25T06:58:21.876Z,9.69
2023-03-25T06:59:21.859Z,9.69
2023-03-25T07:00:21.845Z,9.67
2023-03-25T07:01:21.861Z,9.70
2023-03-25T07:02:21.823Z,9.67
2023-03-25T07:03:21.815Z,9.66
2023-03-25T07:04:21.781Z,9.69
2023-03-25T07:05:21.793Z,9.67
2023-03-25T07:06:21.769Z,9.70
2023-03-25T07:07:21.758Z,9.67
2023-03-25T07:08:21.754Z,9.67
2023-03-25T07:09:21.722Z,9.64
2023-03-25T07:10:21.703Z,9.66
2023-03-25T07:11:21.710Z,9.67
2023-03-25T07:12:21.677Z,9.69
2023-03-25T07:13:21.669Z,9.69
2023-03-25T07:14:21.662Z,9.72
2023-03-25T07:15:21.664Z,9.74
2023-03-25T07:16:21.843Z,9.76
2023-03-25T07:17:21.634Z,9.77
2023-03-25T07:18:21.583Z,9.81
2023-03-25T07:19:21.590Z,9.82
2023-03-25T07:20:21.566Z,9.84
2023-03-25T07:21:21.611Z,9.82
2023-03-25T07:22:21.539Z,9.85
2023-03-25T07:23:21.533Z,9.90
2023-03-25T07:24:21.523Z,9.91
2023-03-25T07:25:21.492Z,9.91
2023-03-25T07:26:21.489Z,9.94
2023-03-25T07:27:21.469Z,9.97
2023-03-25T07:28:21.455Z,9.99
2023-03-25T07:29:21.444Z,9.99
2023-03-25T07:30:21.413Z,10.00
2023-03-25T07:31:21.464Z,9.99
2023-03-25T07:32:21.473Z,9.97
2023-03-25T07:33:21.399Z,9.97
2023-03-25T07:34:21.369Z,9.99
2023-03-25T07:35:21.387Z,9.99
2023-03-25T07:36:21.342Z,10.03
2023-03-25T07:37:21.351Z,10.03
2023-03-25T07:38:21.304Z,10.05
2023-03-25T07:39:21.310Z,10.05
2023-03-25T07:40:21.290Z,10.02
2023-03-25T07:41:21.275Z,10.03
2023-03-25T07:42:21.298Z,10.06
2023-03-25T07:43:21.266Z,10.10
2023-03-25T07:44:21.251Z,10.12
2023-03-25T07:45:21.246Z,10.12
2023-03-25T07:46:21.265Z,10.15
2023-03-25T07:47:21.241Z,10.17
2023-03-25T07:48:21.196Z,10.21
2023-03-25T07:49:21.176Z,10.20
2023-03-25T07:50:22.528Z,10.24
2023-03-25T07:51:21.147Z,10.27
2023-03-25T07:52:21.144Z,10.27
2023-03-25T07:53:21.126Z,10.30
2023-03-25T07:54:21.110Z,10.33
2023-03-25T07:55:21.086Z,10.36
2023-03-25T07:56:21.075Z,10.38
2023-03-25T07:57:21.080Z,10.39
2023-03-25T07:58:21.070Z,10.45
2023-03-25T07:59:21.039Z,10.49
2023-03-25T08:00:21.020Z,10.49
2023-03-25T08:01:21.022Z,10.53
2023-03-25T08:02:21.056Z,10.57
2023-03-25T08:03:21.056Z,10.75
2023-03-25T08:04:20.977Z,10.98
2023-03-25T08:05:20.957Z,11.04
2023-03-25T08:06:20.954Z,11.01
2023-03-25T08:07:20.952Z,10.98
2023-03-25T08:08:20.913Z,10.94
2023-03-25T08:09:20.905Z,10.95
2023-03-25T08:10:20.891Z,10.90
2023-03-25T08:11:20.881Z,10.89
2023-03-25T08:12:20.886Z,10.90
2023-03-25T08:13:20.846Z,10.94
2023-03-25T08:14:20.838Z,11.00
2023-03-25T08:15:20.829Z,11.02
2023-03-25T08:16:20.834Z,11.05
2023-03-25T08:17:20.802Z,11.04
2023-03-25T08:18:20.782Z,11.05
2023-03-25T08:19:20.768Z,11.04
2023-03-25T08:20:20.741Z,10.98
2023-03-25T08:21:20.750Z,10.98
2023-03-25T08:22:20.738Z,10.97
2023-03-25T08:23:20.711Z,10.97
2023-03-25T08:24:20.706Z,10.97
2023-03-25T08:25:20.673Z,10.97
2023-03-25T08:26:20.669Z,10.98
2023-03-25T08:27:20.677Z,11.02
2023-03-25T08:28:20.638Z,11.31
2023-03-25T08:29:20.779Z,11.52
2023-03-25T08:30:20.631Z,11.73
2023-03-25T08:31:20.636Z,11.95
2023-03-25T08:32:20.649Z,12.08
2023-03-25T08:33:20.580Z,12.12
2023-03-25T08:34:20.599Z,12.17
2023-03-25T08:35:20.600Z,12.20
2023-03-25T08:36:20.578Z,12.26
2023-03-25T08:37:20.536Z,12.26
2023-03-25T08:38:20.528Z,12.23
2023-03-25T08:39:20.610Z,12.18
2023-03-25T08:40:20.498Z,12.10
2023-03-25T08:41:20.444Z,11.89
2023-03-25T08:42:20.463Z,11.74
2023-03-25T08:43:20.443Z,11.55
2023-03-25T08:44:20.411Z,11.44
2023-03-25T08:45:20.409Z,11.30
2023-03-25T08:46:20.429Z,11.20
2023-03-25T08:47:20.445Z,11.16
2023-03-25T08:48:20.377Z,11.07
2023-03-25T08:49:20.359Z,11.05
2023-03-25T08:50:20.343Z,11.01
2023-03-25T08:51:20.337Z,10.98
2023-03-25T08:52:20.355Z,10.94
2023-03-25T08:53:20.307Z,10.86
2023-03-25T08:54:20.316Z,10.84
2023-03-25T08:55:20.280Z,10.79
2023-03-25T08:56:20.286Z,10.72
2023-03-25T08:57:20.283Z,10.65
2023-03-25T08:58:20.227Z,10.58
2023-03-25T08:59:20.221Z,10.41
2023-03-25T09:00:20.211Z,10.31
2023-03-25T09:01:20.254Z,10.13
2023-03-25T09:02:20.180Z,9.91
2023-03-25T09:03:20.173Z,9.66
2023-03-25T09:04:20.152Z,9.44
2023-03-25T09:05:20.193Z,9.21
2023-03-25T09:06:20.136Z,8.92
2023-03-25T09:07:20.117Z,8.46
2023-03-25T09:08:20.118Z,8.28
2023-03-25T09:09:20.099Z,8.14
2023-03-25T09:10:20.076Z,8.08
2023-03-25T09:11:33.956Z,8.08
2023-03-25T09:12:21.048Z,8.14
2023-03-25T09:13:20.052Z,8.17
2023-03-25T09:14:20.027Z,8.09
2023-03-25T09:15:19.983Z,8.14
2023-03-25T09:16:20.025Z,8.24
2023-03-25T09:17:19.978Z,8.34
2023-03-25T09:18:19.975Z,8.38
2023-03-25T09:19:19.953Z,8.45
2023-03-25T09:20:19.946Z,8.57
2023-03-25T09:21:19.954Z,8.69
2023-03-25T09:22:19.913Z,8.82
2023-03-25T09:23:19.914Z,8.92
2023-03-25T09:24:19.890Z,9.00
2023-03-25T09:25:19.873Z,9.11
2023-03-25T09:26:19.868Z,9.30
2023-03-25T09:27:19.847Z,9.30
2023-03-25T09:28:19.894Z,9.33
2023-03-25T09:29:19.814Z,9.36
2023-03-25T09:30:19.812Z,9.39
2023-03-25T09:31:19.841Z,9.42
2023-03-25T09:32:19.760Z,9.34
2023-03-25T09:33:19.769Z,9.33
2023-03-25T09:34:19.743Z,9.31
2023-03-25T09:35:19.799Z,9.33
2023-03-25T09:36:19.719Z,9.33
2023-03-25T09:37:19.775Z,9.27
2023-03-25T09:38:19.737Z,9.29
2023-03-25T09:39:19.668Z,9.24
2023-03-25T09:40:19.667Z,9.21
2023-03-25T09:41:19.651Z,9.26
2023-03-25T09:42:19.636Z,9.29
2023-03-25T09:43:19.630Z,9.37
2023-03-25T09:44:19.623Z,9.87
2023-03-25T09:45:19.599Z,9.91
2023-03-25T09:46:19.616Z,9.95
2023-03-25T09:47:19.590Z,10.00
2023-03-25T09:48:19.572Z,10.07
2023-03-25T09:49:19.540Z,10.15
2023-03-25T09:50:19.542Z,10.20
2023-03-25T09:51:19.504Z,10.23
2023-03-25T09:52:19.523Z,10.28
2023-03-25T09:53:19.496Z,10.34
2023-03-25T09:54:19.473Z,10.38
2023-03-25T09:55:19.451Z,10.33
2023-03-25T09:56:19.445Z,10.33
2023-03-25T09:57:19.483Z,10.38
2023-03-25T09:58:19.433Z,10.46
2023-03-25T09:59:19.409Z,10.41
2023-03-25T10:00:19.386Z,10.48
2023-03-25T10:01:19.420Z,10.55
2023-03-25T10:02:19.421Z,10.58
2023-03-25T10:03:19.407Z,10.57
2023-03-25T10:04:19.345Z,10.57
2023-03-25T10:05:19.318Z,10.57
2023-03-25T10:06:19.307Z,10.61
2023-03-25T10:07:19.304Z,10.68
2023-03-25T10:08:19.297Z,10.72
2023-03-25T10:09:19.270Z,10.69
2023-03-25T10:10:19.257Z,10.57
2023-03-25T10:11:19.244Z,10.58
2023-03-25T10:12:19.227Z,10.61
2023-03-25T10:13:20.087Z,10.67
2023-03-25T10:14:19.208Z,10.79
2023-03-25T10:15:19.187Z,10.94
2023-03-25T10:16:19.226Z,11.04
2023-03-25T10:17:19.179Z,11.16
2023-03-25T10:18:19.153Z,11.23
2023-03-25T10:19:19.127Z,11.35
2023-03-25T10:20:19.118Z,11.49
2023-03-25T10:21:19.096Z,11.49
2023-03-25T10:22:19.078Z,11.56
2023-03-25T10:23:19.089Z,11.59
2023-03-25T10:24:19.060Z,11.60
2023-03-25T10:25:19.049Z,11.55
2023-03-25T10:26:19.041Z,11.53
2023-03-25T10:27:19.020Z,11.56
2023-03-25T10:28:19.047Z,11.59
2023-03-25T10:29:19.000Z,11.63
2023-03-25T10:30:18.981Z,11.73
2023-03-25T10:31:18.990Z,11.77
2023-03-25T10:32:18.949Z,11.68
2023-03-25T10:33:18.976Z,11.65
2023-03-25T10:34:18.944Z,11.63
2023-03-25T10:35:18.959Z,11.63
2023-03-25T10:36:18.899Z,11.65
2023-03-25T10:37:18.887Z,11.65
2023-03-25T10:38:18.913Z,11.59
2023-03-25T10:39:18.891Z,11.56
2023-03-25T10:40:21.002Z,11.59
2023-03-25T10:41:18.845Z,11.58
2023-03-25T10:42:18.821Z,11.60
2023-03-25T10:43:18.819Z,11.60
2023-03-25T10:44:18.802Z,11.65
2023-03-25T10:45:18.775Z,11.62
2023-03-25T10:46:18.817Z,11.62
2023-03-25T10:47:18.746Z,11.63
2023-03-25T10:48:18.740Z,11.67
2023-03-25T10:49:18.761Z,11.63
2023-03-25T10:50:18.726Z,11.55
2023-03-25T10:51:18.700Z,11.51
2023-03-25T10:52:18.694Z,11.49
2023-03-25T10:53:18.698Z,11.53
2023-03-25T10:54:18.681Z,11.58
2023-03-25T10:55:18.652Z,11.71
2023-03-25T10:56:18.640Z,11.68
2023-03-25T10:57:18.621Z,11.71
2023-03-25T10:58:18.614Z,11.73
2023-03-25T10:59:18.876Z,11.77
2023-03-25T11:00:18.576Z,11.76
2023-03-25T11:01:18.587Z,11.70
2023-03-25T11:02:18.649Z,11.77
2023-03-25T11:03:18.572Z,11.95
2023-03-25T11:04:18.560Z,12.08
2023-03-25T11:05:18.999Z,12.20
2023-03-25T11:06:18.505Z,12.28
2023-03-25T11:07:18.483Z,12.29
2023-03-25T11:08:24.150Z,12.43
2023-03-25T11:09:19.493Z,12.57
2023-03-25T11:10:18.461Z,12.73
2023-03-25T11:11:18.424Z,12.76
2023-03-25T11:12:18.416Z,12.70
2023-03-25T11:13:18.408Z,12.69
2023-03-25T11:14:18.408Z,12.69
2023-03-25T11:15:18.444Z,12.78
2023-03-25T11:16:18.403Z,12.83
2023-03-25T11:17:18.358Z,12.88
2023-03-25T11:18:18.333Z,12.87
2023-03-25T11:19:18.345Z,12.94
2023-03-25T11:20:18.304Z,12.95
2023-03-25T11:21:18.288Z,12.93
2023-03-25T11:22:18.284Z,12.95
2023-03-25T11:23:18.272Z,13.06
2023-03-25T11:24:18.282Z,13.11
2023-03-25T11:25:18.238Z,13.19
2023-03-25T11:26:18.227Z,13.27
2023-03-25T11:27:18.268Z,13.33
2023-03-25T11:28:18.267Z,13.33
2023-03-25T11:29:19.279Z,13.23
2023-03-25T11:30:18.227Z,13.19
2023-03-25T11:31:18.298Z,13.05
2023-03-25T11:32:18.167Z,13.06
2023-03-25T11:33:18.194Z,13.13
2023-03-25T11:34:18.235Z,13.20
2023-03-25T11:35:18.156Z,13.21
2023-03-25T11:36:18.118Z,13.19
2023-03-25T11:37:18.185Z,13.08
2023-03-25T11:38:18.093Z,13.03
2023-03-25T11:39:18.781Z,13.16
2023-03-25T11:40:18.163Z,13.20
2023-03-25T11:41:18.079Z,13.19
2023-03-25T11:42:18.105Z,13.17
2023-03-25T11:43:18.041Z,13.24
2023-03-25T11:44:18.242Z,13.36
2023-03-25T11:45:18.000Z,13.39
2023-03-25T11:46:18.065Z,13.49
2023-03-25T11:47:17.969Z,13.58
2023-03-25T11:48:17.951Z,13.68
2023-03-25T11:49:17.969Z,13.80
2023-03-25T11:50:17.977Z,13.87
2023-03-25T11:51:18.061Z,13.97
2023-03-25T11:52:17.961Z,13.98
2023-03-25T11:53:17.874Z,14.03
2023-03-25T11:54:17.901Z,14.12
2023-03-25T11:55:17.850Z,14.11
2023-03-25T11:56:17.896Z,14.03
2023-03-25T11:57:17.864Z,14.01
2023-03-25T11:58:17.845Z,14.00
2023-03-25T11:59:17.982Z,13.80
2023-03-25T12:00:17.939Z,13.62
2023-03-25T12:01:17.755Z,13.67
2023-03-25T12:02:17.779Z,13.58
2023-03-25T12:03:20.105Z,13.40
2023-03-25T12:04:17.844Z,13.26
2023-03-25T12:05:17.711Z,13.16
2023-03-25T12:06:17.712Z,13.11
2023-03-25T12:07:17.672Z,12.98
2023-03-25T12:08:17.674Z,12.93
2023-03-25T12:09:17.653Z,12.86
2023-03-25T12:10:17.639Z,12.86
2023-03-25T12:11:17.623Z,12.88
2023-03-25T12:12:17.619Z,12.95
2023-03-25T12:13:17.608Z,13.09
2023-03-25T12:14:17.646Z,13.24
2023-03-25T12:15:17.594Z,13.39
2023-03-25T12:16:17.626Z,13.52
2023-03-25T12:17:17.635Z,13.57
2023-03-25T12:18:17.535Z,13.61
2023-03-25T12:19:17.618Z,13.67
2023-03-25T12:20:17.519Z,13.67
2023-03-25T12:21:17.483Z,13.75
2023-03-25T12:22:17.491Z,13.79
2023-03-25T12:23:17.474Z,13.75
2023-03-25T12:24:17.471Z,13.75
2023-03-25T12:25:17.434Z,13.75
2023-03-25T12:26:17.458Z,13.61
2023-03-25T12:27:17.419Z,13.46
2023-03-25T12:28:17.406Z,13.31
2023-03-25T12:29:17.392Z,13.17
2023-03-25T12:30:17.373Z,13.06
2023-03-25T12:31:17.383Z,13.01
2023-03-25T12:32:17.364Z,12.95
2023-03-25T12:33:17.324Z,12.88
2023-03-25T12:34:17.391Z,12.84
2023-03-25T12:35:17.357Z,12.78
2023-03-25T12:36:17.338Z,12.51
2023-03-25T12:37:17.439Z,12.36
2023-03-25T12:38:17.298Z,12.48
2023-03-25T12:39:17.298Z,12.51
2023-03-25T12:40:17.339Z,12.57
2023-03-25T12:41:17.237Z,12.68
2023-03-25T12:42:17.217Z,12.78
2023-03-25T12:43:17.230Z,12.93
2023-03-25T12:44:17.214Z,12.94
2023-03-25T12:45:17.244Z,13.02
2023-03-25T12:46:17.327Z,13.16
2023-03-25T12:47:17.146Z,13.24
2023-03-25T12:48:17.140Z,13.30
2023-03-25T12:49:17.113Z,13.24
2023-03-25T12:50:17.121Z,13.36
2023-03-25T12:51:17.085Z,13.36
2023-03-25T12:52:17.089Z,13.49
2023-03-25T12:53:17.066Z,13.62
2023-03-25T12:54:17.064Z,13.83
2023-03-25T12:55:17.032Z,13.94
2023-03-25T12:56:17.028Z,14.07
2023-03-25T12:57:16.994Z,14.12
2023-03-25T12:58:17.002Z,14.15
2023-03-25T12:59:16.982Z,14.23
2023-03-25T13:00:16.984Z,14.22
2023-03-25T13:01:16.982Z,14.20
2023-03-25T13:02:16.992Z,14.04
2023-03-25T13:03:16.995Z,13.85
2023-03-25T13:04:16.912Z,13.86
2023-03-25T13:05:16.902Z,13.95
2023-03-25T13:06:16.940Z,14.05